Time;durP1;ratioP1;P1;durP2;ratioP2;P2;SDS_P1;SDS_P2;PMS_P1;PMS_P2;Temp;Humidity;BMP_temperature;BMP_pressure;BME280_temperature;BME280_humidity;BME280_pressure;Samples;Min_cycle;Max_cycle;Signal;HPM_P1;HPM_P2
2022/01/03 00:00:37;;;;;;;38.78;20.02;;;9.50;99.90;;;;;;5042310;28;20040;-77
2022/01/03 00:03:06;;;;;;;39.38;20.15;;;9.50;99.90;;;;;;5043697;28;20531;-77
2022/01/03 00:05:32;;;;;;;43.40;21.23;;;9.40;99.90;;;;;;5038281;28;20107;-77
2022/01/03 00:07:58;;;;;;;39.50;20.38;;;9.50;99.90;;;;;;5039078;28;20099;-77
2022/01/03 00:10:25;;;;;;;46.83;20.73;;;9.50;99.90;;;;;;5042551;28;20116;-78
2022/01/03 00:12:50;;;;;;;42.97;22.30;;;9.40;99.90;;;;;;5043319;28;20029;-77
2022/01/03 00:15:17;;;;;;;45.42;20.52;;;9.40;99.90;;;;;;5039110;28;20029;-77
2022/01/03 00:17:44;;;;;;;42.00;21.75;;;9.40;99.90;;;;;;5042472;28;20067;-76
2022/01/03 00:20:11;;;;;;;44.53;21.00;;;9.30;99.90;;;;;;5044436;28;20045;-77
2022/01/03 00:22:47;;;;;;;43.15;21.60;;;9.20;99.90;;;;;;5048442;28;20072;-76
2022/01/03 00:25:21;;;;;;;41.25;20.40;;;9.30;99.90;;;;;;5050035;28;20045;-77
2022/01/03 00:28:08;;;;;;;44.40;20.80;;;9.30;99.90;;;;;;5050166;28;20033;-77
2022/01/03 00:30:37;;;;;;;45.60;22.15;;;9.30;99.90;;;;;;5049553;28;20179;-77
2022/01/03 00:33:04;;;;;;;48.60;20.88;;;9.30;99.90;;;;;;5050776;28;20025;-77
2022/01/03 00:35:36;;;;;;;50.22;22.75;;;9.20;99.90;;;;;;5049639;28;20033;-78
2022/01/03 00:38:02;;;;;;;54.03;22.42;;;9.30;99.90;;;;;;5047454;28;20025;-78
2022/01/03 00:40:28;;;;;;;46.95;22.27;;;9.20;99.90;;;;;;5047951;28;20051;-77
2022/01/03 00:42:54;;;;;;;53.40;22.83;;;9.20;99.90;;;;;;5049812;28;20029;-77
2022/01/03 00:45:20;;;;;;;48.00;22.23;;;9.20;99.90;;;;;;5049217;28;20614;-77
2022/01/03 00:47:47;;;;;;;51.97;24.02;;;9.20;99.90;;;;;;5047773;28;20071;-77
2022/01/03 00:50:15;;;;;;;52.05;25.10;;;9.20;99.90;;;;;;5051947;28;20033;-76
2022/01/03 00:52:42;;;;;;;55.55;25.63;;;9.20;99.90;;;;;;5047422;28;20041;-77
2022/01/03 00:55:08;;;;;;;51.05;24.25;;;9.30;99.90;;;;;;5049989;28;20025;-77
2022/01/03 00:57:39;;;;;;;61.50;25.20;;;9.20;99.90;;;;;;5051365;28;20025;-76
2022/01/03 01:00:08;;;;;;;77.75;27.00;;;9.20;99.90;;;;;;5048725;28;20040;-76
2022/01/03 01:02:37;;;;;;;77.70;26.92;;;9.20;99.90;;;;;;5049741;28;20029;-77
2022/01/03 01:05:05;;;;;;;63.40;26.60;;;9.20;99.90;;;;;;5052687;28;20021;-77
2022/01/03 01:07:31;;;;;;;93.20;35.83;;;9.20;99.90;;;;;;5047916;28;20112;-77
2022/01/03 01:10:03;;;;;;;177.13;71.47;;;9.20;99.90;;;;;;5051843;28;20021;-77
2022/01/03 01:12:30;;;;;;;181.32;67.93;;;9.20;99.90;;;;;;5051789;28;20100;-77
2022/01/03 01:14:55;;;;;;;151.93;53.03;;;9.20;99.90;;;;;;5050845;28;20017;-76
2022/01/03 01:17:25;;;;;;;140.45;48.03;;;9.20;99.90;;;;;;5051995;28;20032;-76
2022/01/03 01:19:51;;;;;;;144.63;46.97;;;9.20;99.90;;;;;;5044491;28;20032;-76
2022/01/03 01:22:19;;;;;;;138.77;47.95;;;9.20;99.90;;;;;;5050539;28;20056;-77
2022/01/03 01:25:11;;;;;;;132.23;44.63;;;9.20;99.90;;;;;;5049641;28;20428;-76
2022/01/03 01:28:06;;;;;;;123.05;42.95;;;9.20;99.90;;;;;;5050606;28;20514;-78
2022/01/03 01:30:28;;;;;;;94.35;35.22;;;9.10;99.90;;;;;;5046357;28;20095;-76
2022/01/03 01:33:04;;;;;;;90.13;34.97;;;9.10;99.90;;;;;;5050188;28;20430;-77
2022/01/03 01:35:35;;;;;;;93.05;34.22;;;9.10;99.90;;;;;;5051378;28;20029;-77
2022/01/03 01:38:03;;;;;;;107.25;35.72;;;9.10;99.90;;;;;;5050866;28;20087;-76
2022/01/03 01:40:29;;;;;;;106.35;35.85;;;9.00;99.90;;;;;;5051107;28;20044;-77
2022/01/03 01:43:01;;;;;;;123.65;36.08;;;8.90;99.90;;;;;;5052020;28;20025;-77
2022/01/03 01:45:27;;;;;;;146.48;38.55;;;8.90;99.90;;;;;;5051332;28;20483;-77
2022/01/03 01:47:58;;;;;;;126.97;38.22;;;8.90;99.90;;;;;;5052061;28;20021;-76
2022/01/03 01:50:27;;;;;;;134.38;36.90;;;8.80;99.90;;;;;;5050704;28;20037;-76
2022/01/03 01:52:56;;;;;;;111.05;36.83;;;8.80;99.90;;;;;;5051281;28;20045;-76
2022/01/03 01:55:23;;;;;;;124.00;36.33;;;8.90;99.90;;;;;;5050911;28;20024;-76
2022/01/03 01:58:05;;;;;;;137.10;38.63;;;8.90;99.90;;;;;;5050955;28;20017;-77
2022/01/03 02:00:33;;;;;;;129.45;37.42;;;8.90;99.90;;;;;;5051353;28;20494;-77
2022/01/03 02:03:36;;;;;;;154.43;36.55;;;8.90;99.90;;;;;;5051716;28;20025;-78
2022/01/03 02:06:27;;;;;;;76.38;29.73;;;8.80;99.90;;;;;;5050703;28;20025;-77
2022/01/03 02:09:08;;;;;;;67.25;27.63;;;8.80;99.90;;;;;;5051284;28;20052;-77
2022/01/03 02:11:52;;;;;;;63.65;26.67;;;8.80;99.90;;;;;;5050592;28;20025;-76
2022/01/03 02:14:19;;;;;;;67.77;28.13;;;8.90;99.90;;;;;;5050699;28;20057;-76
2022/01/03 02:16:45;;;;;;;65.38;25.33;;;8.90;99.90;;;;;;5050085;28;20267;-75
2022/01/03 02:19:12;;;;;;;58.25;25.52;;;8.90;99.90;;;;;;5049513;28;20021;-76
2022/01/03 02:21:38;;;;;;;59.45;23.88;;;8.90;99.90;;;;;;5050474;28;20097;-76
2022/01/03 02:24:05;;;;;;;57.53;24.15;;;8.80;99.90;;;;;;5051383;28;20025;-76
2022/01/03 02:26:31;;;;;;;51.95;24.08;;;8.80;99.90;;;;;;5050475;28;20033;-76
2022/01/03 02:28:57;;;;;;;67.47;24.10;;;8.70;99.90;;;;;;5049499;28;20021;-77
2022/01/03 02:31:24;;;;;;;55.13;22.40;;;8.70;99.90;;;;;;5049653;28;20534;-77
2022/01/03 02:33:50;;;;;;;48.92;23.10;;;8.50;99.90;;;;;;5049647;28;20026;-77
2022/01/03 02:36:17;;;;;;;42.85;20.83;;;8.50;99.90;;;;;;5051622;28;20098;-77
2022/01/03 02:38:43;;;;;;;46.97;21.60;;;8.50;99.90;;;;;;5049901;28;20096;-77
2022/01/03 02:41:09;;;;;;;42.80;21.15;;;8.40;99.90;;;;;;5049363;28;20045;-77
2022/01/03 02:43:35;;;;;;;42.55;21.83;;;8.40;99.90;;;;;;5048784;28;20378;-76
2022/01/03 02:46:01;;;;;;;44.30;22.25;;;8.40;99.90;;;;;;5049392;28;20079;-76
2022/01/03 02:48:27;;;;;;;42.80;21.33;;;8.30;99.90;;;;;;5048263;28;20021;-76
2022/01/03 02:50:54;;;;;;;53.78;22.30;;;8.30;99.90;;;;;;5050166;28;20048;-76
2022/01/03 02:53:20;;;;;;;41.75;20.70;;;8.40;99.90;;;;;;5049145;28;20467;-76
2022/01/03 02:55:47;;;;;;;47.50;21.42;;;8.40;99.90;;;;;;5048836;28;20025;-77
2022/01/03 02:58:13;;;;;;;47.50;22.38;;;8.30;99.90;;;;;;5048950;28;20022;-77
2022/01/03 03:00:52;;;;;;;52.17;22.52;;;8.40;99.90;;;;;;5048954;28;20049;-76
2022/01/03 03:03:20;;;;;;;46.75;20.10;;;8.30;99.90;;;;;;5047039;28;20053;-77
2022/01/03 03:05:46;;;;;;;43.63;20.42;;;8.30;99.90;;;;;;5049338;28;20025;-76
2022/01/03 03:08:13;;;;;;;44.83;20.45;;;8.30;99.90;;;;;;5048835;28;20104;-77
2022/01/03 03:10:39;;;;;;;43.15;20.88;;;8.30;99.90;;;;;;5048511;28;20449;-76
2022/01/03 03:13:04;;;;;;;48.22;21.33;;;8.30;99.90;;;;;;5048414;28;20108;-76
2022/01/03 03:15:31;;;;;;;44.13;21.15;;;8.30;99.90;;;;;;5049525;28;20032;-76
2022/01/03 03:17:57;;;;;;;50.70;21.58;;;8.20;99.90;;;;;;5049800;28;20399;-77
2022/01/03 03:20:28;;;;;;;46.90;20.98;;;8.20;99.90;;;;;;5048183;28;20082;-77
2022/01/03 03:22:55;;;;;;;47.17;21.45;;;8.20;99.90;;;;;;5047947;28;20031;-76
2022/01/03 03:25:31;;;;;;;53.35;20.80;;;8.20;99.90;;;;;;5048010;28;20029;-76
2022/01/03 03:28:04;;;;;;;43.08;19.00;;;8.10;99.90;;;;;;5047948;28;20029;-77
2022/01/03 03:30:50;;;;;;;40.63;18.58;;;8.10;99.90;;;;;;5049634;28;20524;-76
2022/01/03 03:33:22;;;;;;;45.90;16.88;;;8.20;99.90;;;;;;5045451;28;20045;-76
2022/01/03 03:35:50;;;;;;;55.60;15.70;;;8.10;99.90;;;;;;5058391;28;20147;-76
2022/01/03 03:38:17;;;;;;;52.13;16.85;;;8.20;99.90;;;;;;5047853;28;20025;-76
2022/01/03 03:40:45;;;;;;;49.60;16.05;;;8.10;99.90;;;;;;5047557;28;20037;-76
2022/01/03 03:43:12;;;;;;;23.90;12.00;;;8.10;99.90;;;;;;5048146;28;20390;-76
2022/01/03 03:45:38;;;;;;;40.78;13.30;;;8.00;99.90;;;;;;5048276;28;22700;-77
2022/01/03 03:48:05;;;;;;;34.33;12.63;;;7.90;99.90;;;;;;5049567;28;20067;-77
2022/01/03 03:50:30;;;;;;;29.20;13.77;;;7.90;99.90;;;;;;5047722;28;20048;-77
2022/01/03 03:52:56;;;;;;;26.73;13.38;;;7.80;99.90;;;;;;5047232;28;20045;-77
2022/01/03 03:55:22;;;;;;;26.13;12.77;;;7.70;99.90;;;;;;5048687;28;20055;-76
2022/01/03 03:57:47;;;;;;;31.95;13.65;;;7.70;99.90;;;;;;5051574;28;20047;-77
2022/01/03 04:00:16;;;;;;;25.35;12.52;;;7.70;99.90;;;;;;5053918;28;20025;-76
2022/01/03 04:02:42;;;;;;;21.98;12.63;;;7.60;99.90;;;;;;5051638;28;20116;-77
2022/01/03 04:05:09;;;;;;;26.67;12.77;;;7.60;99.90;;;;;;5050783;28;20120;-76
2022/01/03 04:07:35;;;;;;;20.15;11.27;;;7.60;99.90;;;;;;5050610;28;20515;-77
2022/01/03 04:10:05;;;;;;;18.90;10.70;;;7.50;99.90;;;;;;5050725;28;20500;-77
2022/01/03 04:12:31;;;;;;;19.20;11.18;;;7.50;99.90;;;;;;5053461;28;20056;-77
2022/01/03 04:14:57;;;;;;;16.65;9.88;;;7.50;99.90;;;;;;5051897;28;20053;-76
2022/01/03 04:17:22;;;;;;;17.13;9.10;;;7.50;99.90;;;;;;5050711;28;20090;-76
2022/01/03 04:19:49;;;;;;;16.45;9.63;;;7.60;99.90;;;;;;5050932;28;20038;-76
2022/01/03 04:22:14;;;;;;;16.25;9.43;;;7.60;99.90;;;;;;5050984;28;20024;-77
2022/01/03 04:24:40;;;;;;;19.33;9.23;;;7.60;99.90;;;;;;5051375;28;20025;-76
2022/01/03 04:27:06;;;;;;;31.08;9.23;;;7.60;99.90;;;;;;5053059;28;20021;-76
2022/01/03 04:29:32;;;;;;;22.70;9.60;;;7.60;99.90;;;;;;5050056;28;20025;-77
2022/01/03 04:31:58;;;;;;;37.20;9.98;;;7.60;99.90;;;;;;5050525;28;20372;-76
2022/01/03 04:34:24;;;;;;;30.20;10.40;;;7.60;99.90;;;;;;5050333;28;20021;-76
2022/01/03 04:36:50;;;;;;;20.42;9.70;;;7.60;99.90;;;;;;5050698;28;22409;-76
2022/01/03 04:39:16;;;;;;;22.83;10.05;;;7.60;99.90;;;;;;5053377;28;20483;-76
2022/01/03 04:41:41;;;;;;;45.53;10.82;;;7.70;99.90;;;;;;5052150;28;20036;-76
2022/01/03 04:44:07;;;;;;;24.90;9.90;;;7.70;99.90;;;;;;5049639;28;20392;-77
2022/01/03 04:46:34;;;;;;;44.08;10.65;;;7.60;99.90;;;;;;5050164;28;20033;-77
2022/01/03 04:49:01;;;;;;;27.92;9.18;;;7.60;99.90;;;;;;5049959;28;20057;-77
2022/01/03 04:51:27;;;;;;;27.13;9.98;;;7.60;99.90;;;;;;5060974;28;20500;-76
2022/01/03 04:53:53;;;;;;;38.55;10.23;;;7.70;99.90;;;;;;5050973;28;20115;-77
2022/01/03 04:56:18;;;;;;;57.20;10.35;;;7.70;99.90;;;;;;5049844;28;20166;-76
2022/01/03 04:58:44;;;;;;;50.63;10.35;;;7.70;99.90;;;;;;5049384;28;20025;-76
2022/01/03 05:01:10;;;;;;;30.52;8.80;;;7.70;99.90;;;;;;5049822;28;20526;-76
2022/01/03 05:03:36;;;;;;;31.67;8.80;;;7.60;99.90;;;;;;5051144;28;20035;-77
2022/01/03 05:06:02;;;;;;;37.78;14.10;;;7.60;99.90;;;;;;5051929;28;20025;-77
2022/01/03 05:08:29;;;;;;;37.83;11.10;;;7.70;99.90;;;;;;5048875;28;20089;-77
2022/01/03 05:11:00;;;;;;;29.23;10.15;;;7.60;99.90;;;;;;5049772;28;20021;-77
2022/01/03 05:13:26;;;;;;;24.75;9.95;;;7.70;99.90;;;;;;5049628;28;20036;-77
2022/01/03 05:15:52;;;;;;;36.55;9.82;;;7.60;99.90;;;;;;5049689;28;20495;-76
2022/01/03 05:18:17;;;;;;;26.48;9.45;;;7.60;99.90;;;;;;5052590;28;20036;-77
2022/01/03 05:20:43;;;;;;;31.65;10.55;;;7.60;99.90;;;;;;5049546;28;20462;-77
2022/01/03 05:23:09;;;;;;;22.42;9.05;;;7.60;99.90;;;;;;5049449;28;20025;-77
2022/01/03 05:25:35;;;;;;;36.83;9.32;;;7.60;99.90;;;;;;5049608;28;20064;-77
2022/01/03 05:28:02;;;;;;;37.53;12.15;;;7.60;99.90;;;;;;5053460;28;20020;-76
2022/01/03 05:30:28;;;;;;;38.05;12.93;;;7.60;99.90;;;;;;5051706;28;20044;-76
2022/01/03 05:32:53;;;;;;;42.50;14.77;;;7.60;99.90;;;;;;5050482;28;20479;-76
2022/01/03 05:35:19;;;;;;;37.22;11.68;;;7.60;99.90;;;;;;5049063;28;20040;-77
2022/01/03 05:37:45;;;;;;;49.10;10.10;;;7.70;99.90;;;;;;5049287;28;20021;-76
2022/01/03 05:40:11;;;;;;;72.10;10.98;;;7.70;99.90;;;;;;5049245;28;20033;-76
2022/01/03 05:42:36;;;;;;;44.78;10.05;;;7.70;99.90;;;;;;5050030;28;20116;-77
2022/01/03 05:45:04;;;;;;;62.70;11.73;;;7.60;99.90;;;;;;5050897;28;20108;-76
2022/01/03 05:47:30;;;;;;;76.22;12.60;;;7.70;99.90;;;;;;5048542;28;20457;-76
2022/01/03 05:49:56;;;;;;;50.80;11.95;;;7.70;99.90;;;;;;5049177;28;20096;-76
2022/01/03 05:52:22;;;;;;;37.25;9.63;;;7.70;99.90;;;;;;5048721;28;20061;-77
2022/01/03 05:54:48;;;;;;;38.13;10.02;;;7.70;99.90;;;;;;5047539;28;20021;-82
2022/01/03 05:57:14;;;;;;;40.38;10.60;;;7.70;99.90;;;;;;5051814;28;20059;-76
2022/01/03 05:59:40;;;;;;;40.13;11.10;;;7.60;99.90;;;;;;5048758;28;20025;-77
2022/01/03 06:02:06;;;;;;;47.05;11.90;;;7.50;99.90;;;;;;5048759;28;20877;-76
2022/01/03 06:04:42;;;;;;;51.20;11.85;;;7.50;99.90;;;;;;5048645;28;20017;-77
2022/01/03 06:07:09;;;;;;;32.03;11.52;;;7.50;99.90;;;;;;5056966;28;20515;-76
2022/01/03 06:09:35;;;;;;;34.58;11.23;;;7.40;99.90;;;;;;5049982;28;20025;-76
2022/01/03 06:12:02;;;;;;;25.15;10.95;;;7.40;99.90;;;;;;5050711;28;20084;-75
2022/01/03 06:14:28;;;;;;;42.25;11.00;;;7.40;99.90;;;;;;5048799;28;20025;-76
2022/01/03 06:16:54;;;;;;;38.30;9.20;;;7.40;99.90;;;;;;5048379;28;20021;-76
2022/01/03 06:19:21;;;;;;;47.47;11.25;;;7.30;99.90;;;;;;5048513;28;20033;-76
2022/01/03 06:21:47;;;;;;;35.47;9.52;;;7.30;99.90;;;;;;5049231;28;20047;-77
2022/01/03 06:24:15;;;;;;;40.45;9.73;;;7.30;99.90;;;;;;5051150;28;20116;-77
2022/01/03 06:26:42;;;;;;;35.00;11.40;;;7.30;99.90;;;;;;5047256;28;20025;-77
2022/01/03 06:29:10;;;;;;;20.27;9.88;;;7.30;99.90;;;;;;5048189;28;20090;-77
2022/01/03 06:31:36;;;;;;;21.42;9.50;;;7.20;99.90;;;;;;5040436;28;20025;-77
2022/01/03 06:34:03;;;;;;;21.70;9.68;;;7.20;99.90;;;;;;5048207;28;20033;-77
2022/01/03 06:36:29;;;;;;;18.83;9.68;;;7.10;99.90;;;;;;5050062;28;20352;-77
2022/01/03 06:38:56;;;;;;;21.75;9.65;;;7.10;99.90;;;;;;5048246;28;20083;-76
2022/01/03 06:41:22;;;;;;;29.00;10.20;;;7.10;99.90;;;;;;5048166;28;20041;-77
2022/01/03 06:43:48;;;;;;;16.48;9.65;;;7.10;99.90;;;;;;5049351;28;20507;-77
2022/01/03 06:46:14;;;;;;;15.23;9.27;;;7.00;99.90;;;;;;5048065;28;20056;-77
2022/01/03 06:48:40;;;;;;;16.90;9.98;;;6.90;99.90;;;;;;5049181;28;20547;-78
2022/01/03 06:51:06;;;;;;;18.15;8.95;;;7.00;99.90;;;;;;5050597;28;20059;-77
2022/01/03 06:53:31;;;;;;;19.42;9.60;;;6.90;99.90;;;;;;5047095;28;20427;-77
2022/01/03 06:55:58;;;;;;;30.90;9.57;;;6.90;99.90;;;;;;5048054;28;20018;-76
2022/01/03 06:58:24;;;;;;;34.05;9.65;;;6.90;99.90;;;;;;5047747;28;20503;-77
2022/01/03 07:00:49;;;;;;;34.95;10.00;;;6.80;99.90;;;;;;5047880;28;20036;-77
2022/01/03 07:03:15;;;;;;;23.88;9.98;;;6.80;99.90;;;;;;5051133;28;20063;-77
2022/01/03 07:05:41;;;;;;;44.83;10.38;;;6.70;99.90;;;;;;5047670;28;20188;-78
2022/01/03 07:08:06;;;;;;;38.90;9.93;;;6.80;99.90;;;;;;5047370;28;20033;-77
2022/01/03 07:10:32;;;;;;;24.73;9.05;;;6.80;99.90;;;;;;5047728;28;20541;-77
2022/01/03 07:13:00;;;;;;;14.23;9.20;;;6.80;99.90;;;;;;5048178;28;20021;-77
2022/01/03 07:20:55;;;;;;;12.23;8.77;;;6.80;99.90;;;;;;5050487;28;20036;-77
2022/01/03 07:23:22;;;;;;;14.48;8.93;;;6.80;99.90;;;;;;5048566;28;20071;-77
2022/01/03 07:25:48;;;;;;;14.27;10.07;;;6.80;99.90;;;;;;5047507;28;20415;-78
2022/01/03 07:28:14;;;;;;;13.77;9.38;;;6.90;99.90;;;;;;5046941;28;20499;-76
2022/01/03 07:30:40;;;;;;;15.65;9.43;;;6.90;99.90;;;;;;5050071;28;20029;-77
2022/01/03 07:33:06;;;;;;;13.20;9.05;;;6.90;99.90;;;;;;5053917;28;20086;-76
2022/01/03 07:35:32;;;;;;;12.75;9.15;;;7.00;99.90;;;;;;5050864;28;20147;-77
2022/01/03 07:37:59;;;;;;;13.00;8.88;;;7.00;99.90;;;;;;5051346;28;20029;-77
2022/01/03 07:40:25;;;;;;;12.10;9.00;;;7.10;99.90;;;;;;5052918;28;20115;-77
2022/01/03 07:42:51;;;;;;;13.13;9.02;;;7.10;99.90;;;;;;5053525;28;20025;-77
2022/01/03 07:45:17;;;;;;;13.07;9.10;;;7.10;99.90;;;;;;5054431;28;20483;-77
2022/01/03 07:47:43;;;;;;;14.50;8.57;;;7.20;99.90;;;;;;5053290;28;20036;-77
2022/01/03 07:50:10;;;;;;;14.60;9.38;;;7.30;99.90;;;;;;5052940;28;20021;-78
2022/01/03 07:52:36;;;;;;;14.13;8.88;;;7.40;99.90;;;;;;5052772;28;20447;-77
2022/01/03 07:55:03;;;;;;;15.25;9.45;;;7.50;99.90;;;;;;5053879;28;20025;-77
2022/01/03 07:57:28;;;;;;;19.00;10.90;;;7.60;99.90;;;;;;5051644;28;20067;-78
2022/01/03 07:59:55;;;;;;;15.75;9.13;;;7.60;99.90;;;;;;5057921;28;20104;-78
2022/01/03 08:02:21;;;;;;;14.10;9.45;;;7.70;99.90;;;;;;5052693;28;20418;-78
2022/01/03 08:04:47;;;;;;;18.45;11.30;;;7.80;99.90;;;;;;5050891;28;20033;-78
2022/01/03 08:07:12;;;;;;;17.77;11.65;;;7.90;99.90;;;;;;5050212;28;20040;-78
2022/01/03 08:09:38;;;;;;;20.75;12.77;;;8.00;99.90;;;;;;5052632;28;20384;-78
2022/01/03 08:12:05;;;;;;;75.38;59.47;;;8.10;99.90;;;;;;5052316;28;20025;-78
2022/01/03 08:14:32;;;;;;;55.70;38.10;;;8.20;99.90;;;;;;5050391;28;20025;-78
2022/01/03 08:16:58;;;;;;;192.75;112.00;;;8.30;99.90;;;;;;5051144;28;20036;-77
2022/01/03 08:19:24;;;;;;;38.28;26.23;;;8.50;99.90;;;;;;5049805;28;20104;-77
2022/01/03 08:21:50;;;;;;;36.35;22.30;;;8.60;99.90;;;;;;5050317;28;20147;-77
2022/01/03 08:24:16;;;;;;;22.35;15.68;;;8.70;99.90;;;;;;5053929;28;20021;-77
2022/01/03 08:26:42;;;;;;;24.95;14.38;;;8.80;99.90;;;;;;5049975;28;20033;-77
2022/01/03 08:29:09;;;;;;;20.58;13.95;;;9.00;99.90;;;;;;5050467;28;20028;-76
2022/01/03 08:31:36;;;;;;;20.65;14.55;;;9.10;99.90;;;;;;5052371;28;20087;-75
2022/01/03 08:34:03;;;;;;;18.77;14.52;;;9.30;99.90;;;;;;5052813;28;20454;-76
2022/01/03 08:36:29;;;;;;;23.35;13.95;;;9.60;99.90;;;;;;5051953;28;20039;-77
2022/01/03 08:38:55;;;;;;;19.50;10.68;;;10.30;99.90;;;;;;5048576;28;20099;-77
2022/01/03 08:41:21;;;;;;;15.57;9.73;;;11.80;99.90;;;;;;5047626;28;20507;-78
2022/01/03 08:43:47;;;;;;;16.15;8.45;;;13.20;99.90;;;;;;5047408;28;20029;-77
2022/01/03 08:46:13;;;;;;;14.07;9.43;;;14.50;99.90;;;;;;5046813;28;20043;-77
2022/01/03 08:48:39;;;;;;;19.20;10.95;;;15.30;99.90;;;;;;5048098;28;20029;-78
2022/01/03 08:51:04;;;;;;;14.40;9.60;;;16.20;96.10;;;;;;5049380;28;20143;-76
2022/01/03 08:53:30;;;;;;;14.93;10.05;;;16.70;94.30;;;;;;5048004;28;20075;-77
2022/01/03 08:55:57;;;;;;;16.80;9.88;;;17.20;92.10;;;;;;5047924;28;20571;-77
2022/01/03 08:58:24;;;;;;;14.02;9.65;;;17.80;89.90;;;;;;5047860;28;20040;-78
2022/01/03 09:00:51;;;;;;;26.17;11.65;;;18.00;87.00;;;;;;5047462;28;20537;-77
2022/01/03 09:03:17;;;;;;;18.13;10.95;;;17.80;85.60;;;;;;5049200;28;20024;-77
2022/01/03 09:05:42;;;;;;;19.35;12.13;;;17.30;85.90;;;;;;5047523;28;20112;-77
2022/01/03 09:08:09;;;;;;;24.67;12.07;;;18.10;85.40;;;;;;5047284;28;20115;-77
2022/01/03 09:10:35;;;;;;;26.77;12.10;;;18.60;82.60;;;;;;5046177;28;20337;-77
2022/01/03 09:13:01;;;;;;;25.08;12.25;;;17.30;83.90;;;;;;5045601;28;20224;-77
2022/01/03 09:15:27;;;;;;;16.65;11.43;;;16.00;89.50;;;;;;5047874;28;20115;-77
2022/01/03 09:17:53;;;;;;;17.80;14.32;;;15.10;92.00;;;;;;5048439;28;20025;-78
2022/01/03 09:20:19;;;;;;;23.98;15.20;;;14.40;94.00;;;;;;5048144;28;20442;-78
2022/01/03 09:22:48;;;;;;;20.48;14.65;;;13.80;96.00;;;;;;5047162;28;20419;-77
2022/01/03 09:30:36;;;;;;;17.15;14.07;;;13.20;99.90;;;;;;5046393;28;20083;-78
2022/01/03 09:33:02;;;;;;;18.17;14.13;;;13.20;99.90;;;;;;5048660;28;20381;-73
2022/01/03 09:35:28;;;;;;;16.73;12.98;;;13.20;99.90;;;;;;5046788;28;20041;-74
2022/01/03 09:37:54;;;;;;;16.38;13.18;;;13.20;99.90;;;;;;5046244;28;20074;-74
2022/01/03 09:40:20;;;;;;;20.83;15.20;;;13.20;99.90;;;;;;5047634;28;20040;-75
2022/01/03 09:42:50;;;;;;;20.40;13.82;;;13.40;99.90;;;;;;5044825;28;20036;-74
2022/01/03 09:45:17;;;;;;;19.55;12.60;;;13.30;99.90;;;;;;5043969;28;20843;-75
2022/01/03 09:47:45;;;;;;;18.27;13.52;;;13.30;99.90;;;;;;5046486;28;20013;-74
2022/01/03 09:50:13;;;;;;;24.98;16.85;;;13.20;99.90;;;;;;5046229;28;20024;-74
2022/01/03 09:52:41;;;;;;;20.23;14.73;;;13.10;99.90;;;;;;5045910;28;20522;-75
2022/01/03 09:55:08;;;;;;;16.85;12.48;;;13.00;99.90;;;;;;5046927;28;20021;-75
2022/01/03 09:57:35;;;;;;;16.95;13.05;;;13.00;99.90;;;;;;5045736;28;20021;-75
2022/01/03 10:00:01;;;;;;;20.67;13.98;;;13.00;99.90;;;;;;5047590;28;20071;-75
2022/01/03 10:02:27;;;;;;;19.77;16.27;;;12.90;99.90;;;;;;5045839;28;20400;-75
2022/01/03 10:04:53;;;;;;;26.90;20.90;;;13.00;99.90;;;;;;5046253;28;20035;-75
2022/01/03 10:07:20;;;;;;;31.70;21.63;;;13.10;99.90;;;;;;5045933;28;20025;-75
2022/01/03 10:09:46;;;;;;;30.80;23.25;;;13.20;99.90;;;;;;5043749;28;20149;-74
2022/01/03 10:12:13;;;;;;;35.90;25.25;;;13.20;99.90;;;;;;5047477;28;20048;-75
2022/01/03 10:14:40;;;;;;;30.00;25.98;;;13.40;99.90;;;;;;5045210;28;20029;-75
2022/01/03 10:17:07;;;;;;;26.60;22.90;;;13.60;99.90;;;;;;5046082;28;20032;-75
2022/01/03 10:19:53;;;;;;;23.50;18.75;;;13.80;99.90;;;;;;5045249;28;20083;-75
2022/01/03 10:22:24;;;;;;;20.42;14.20;;;13.90;99.90;;;;;;4978069;28;20035;-75
2022/01/03 10:24:51;;;;;;;20.67;13.55;;;14.20;99.90;;;;;;4982053;28;20042;-75
2022/01/03 10:27:17;;;;;;;20.90;13.85;;;14.20;99.90;;;;;;4985673;28;20062;-74
2022/01/03 10:29:54;;;;;;;21.20;14.65;;;14.30;99.90;;;;;;4983880;28;20118;-74
2022/01/03 10:32:29;;;;;;;24.38;17.85;;;14.20;99.90;;;;;;4983752;28;20035;-74
2022/01/03 10:34:57;;;;;;;24.80;18.23;;;14.20;99.90;;;;;;4983555;28;20555;-75
2022/01/03 10:37:36;;;;;;;23.35;18.35;;;14.10;99.90;;;;;;4983393;28;20034;-75
2022/01/03 10:40:25;;;;;;;20.98;13.18;;;14.10;99.90;;;;;;4983566;28;20080;-75
2022/01/03 10:42:52;;;;;;;20.52;13.55;;;14.00;99.90;;;;;;4983065;28;20033;-75
2022/01/03 10:45:34;;;;;;;23.70;13.15;;;14.10;99.90;;;;;;4985729;28;20085;-75
2022/01/03 10:48:01;;;;;;;19.42;12.65;;;14.10;99.90;;;;;;4983564;28;20037;-74
2022/01/03 10:50:28;;;;;;;19.83;12.07;;;14.20;99.90;;;;;;4983811;28;20042;-75
2022/01/03 10:52:54;;;;;;;22.83;11.48;;;14.30;99.90;;;;;;4986650;28;20046;-75
2022/01/03 10:55:33;;;;;;;19.67;9.50;;;14.40;99.90;;;;;;4987867;28;20390;-75
2022/01/03 10:58:03;;;;;;;15.82;10.40;;;14.50;99.90;;;;;;4987577;28;20030;-74
2022/01/03 11:00:36;;;;;;;21.40;13.45;;;14.50;99.90;;;;;;5045024;28;20048;-74
2022/01/03 11:03:23;;;;;;;19.98;9.38;;;14.60;99.90;;;;;;5040800;28;20029;-74
2022/01/03 11:05:54;;;;;;;19.98;8.68;;;14.60;99.90;;;;;;5044706;28;20400;-74
2022/01/03 11:11:11;;;;;;;17.45;10.00;;;14.80;99.90;;;;;;5043763;28;20035;-74
2022/01/03 11:13:42;;;;;;;74.38;46.30;;;14.90;99.90;;;;;;5043341;28;20024;-73
2022/01/03 11:16:09;;;;;;;17.92;10.20;;;15.10;99.90;;;;;;5042751;28;20517;-73
2022/01/03 11:18:43;;;;;;;17.52;9.13;;;15.20;99.90;;;;;;5045817;28;20056;-74
2022/01/03 11:21:13;;;;;;;15.75;8.82;;;15.20;99.90;;;;;;5046248;28;20400;-73
2022/01/03 11:23:43;;;;;;;15.18;7.53;;;15.10;99.90;;;;;;5043746;28;20021;-74
2022/01/03 11:26:10;;;;;;;16.58;7.15;;;15.10;99.90;;;;;;5043348;28;20283;-73
2022/01/03 11:28:36;;;;;;;13.40;7.05;;;15.10;99.90;;;;;;5042954;28;20025;-74
2022/01/03 11:31:03;;;;;;;13.85;6.63;;;15.20;99.90;;;;;;5043499;28;20046;-73
2022/01/03 11:33:30;;;;;;;11.90;7.25;;;15.50;99.90;;;;;;5044196;28;20040;-73
2022/01/03 11:35:57;;;;;;;17.85;7.55;;;15.70;99.90;;;;;;5045359;28;20025;-73
2022/01/03 11:38:23;;;;;;;13.63;7.82;;;15.90;99.90;;;;;;5047210;28;20017;-72
2022/01/03 11:40:51;;;;;;;16.38;7.53;;;15.80;99.90;;;;;;5048479;28;20033;-73
2022/01/03 11:43:17;;;;;;;14.10;8.52;;;15.90;99.90;;;;;;5039020;28;20021;-73
2022/01/03 11:45:43;;;;;;;14.77;7.25;;;16.00;99.90;;;;;;5048044;28;20040;-75
2022/01/03 11:48:11;;;;;;;17.17;7.90;;;16.00;99.90;;;;;;5051419;28;20029;-75
2022/01/03 11:50:37;;;;;;;16.73;7.60;;;16.10;99.90;;;;;;5046890;28;20025;-76
2022/01/03 11:53:08;;;;;;;16.73;8.48;;;16.10;99.90;;;;;;5047047;28;20424;-76
2022/01/03 11:55:35;;;;;;;17.75;8.88;;;16.20;99.90;;;;;;5047680;28;20044;-73
2022/01/03 12:06:01;;;;;;;18.85;9.13;;;16.30;99.90;;;;;;5049807;28;20072;-71
2022/01/03 12:08:33;;;;;;;17.10;8.98;;;16.40;99.90;;;;;;5047097;28;20113;-72
2022/01/03 12:11:00;;;;;;;16.17;8.77;;;16.50;99.90;;;;;;5044828;28;20059;-73
2022/01/03 12:13:45;;;;;;;19.08;8.48;;;16.80;99.90;;;;;;5046048;28;20025;-72
2022/01/03 12:16:12;;;;;;;17.20;8.63;;;16.90;99.50;;;;;;5047387;28;20033;-72
2022/01/03 12:18:39;;;;;;;15.68;7.25;;;17.00;98.70;;;;;;5052223;28;20025;-72
2022/01/03 12:21:05;;;;;;;18.85;8.18;;;17.10;98.00;;;;;;5052562;28;20029;-72
2022/01/03 12:23:40;;;;;;;16.23;7.32;;;17.40;98.50;;;;;;5050257;28;20025;-72
2022/01/03 12:26:23;;;;;;;16.15;7.57;;;17.60;97.80;;;;;;5053343;28;20462;-74
2022/01/03 12:29:08;;;;;;;14.80;6.82;;;17.80;97.60;;;;;;5049806;28;20445;-74
2022/01/03 12:32:18;;;;;;;15.65;6.95;;;18.00;96.40;;;;;;5043826;28;20036;-74
2022/01/03 12:34:44;;;;;;;13.10;5.88;;;18.10;95.80;;;;;;5004816;28;20232;-74
2022/01/03 12:37:21;;;;;;;14.10;5.75;;;18.40;95.50;;;;;;5009548;28;20485;-74
2022/01/03 12:40:05;;;;;;;15.55;5.88;;;18.50;94.20;;;;;;5008049;28;20129;-74
2022/01/03 12:42:54;;;;;;;17.67;6.07;;;18.70;94.00;;;;;;5010161;28;20034;-74
2022/01/03 12:45:28;;;;;;;13.75;5.85;;;18.70;93.30;;;;;;5010790;28;20394;-74
2022/01/03 12:48:09;;;;;;;14.00;5.78;;;18.70;93.30;;;;;;5009773;28;20088;-73
2022/01/03 12:50:36;;;;;;;10.05;4.55;;;18.70;94.30;;;;;;5008820;28;20030;-74
2022/01/03 12:53:04;;;;;;;13.00;4.93;;;18.80;92.10;;;;;;5009584;28;20042;-74
2022/01/03 12:55:38;;;;;;;14.25;4.88;;;18.90;92.40;;;;;;5007187;28;20522;-73
2022/01/03 12:58:17;;;;;;;11.57;5.15;;;18.90;92.50;;;;;;5008109;28;20419;-74
2022/01/03 13:00:44;;;;;;;15.48;5.68;;;19.10;93.10;;;;;;5008983;28;20104;-74
2022/01/03 13:03:32;;;;;;;11.43;5.50;;;19.20;92.00;;;;;;5001357;28;20035;-74